Time;durP1;ratioP1;P1;durP2;ratioP2;P2;SDS_P1;SDS_P2;PMS_P1;PMS_P2;Temp;Humidity;BMP_temperature;BMP_pressure;BME280_temperature;BME280_humidity;BME280_pressure;Samples;Min_cycle;Max_cycle;Signal;HPM_P1;HPM_P2
2022/06/14 00:00:55;;;;;;;;;;;25.00;47.00;;;;;;4899162;29;19915;-65
2022/06/14 00:03:24;;;;;;;;;;;25.00;46.90;;;;;;4899460;29;20385;-66
2022/06/14 00:05:50;;;;;;;;;;;25.00;46.80;;;;;;4899286;29;20345;-66
2022/06/14 00:08:16;;;;;;;;;;;25.00;46.80;;;;;;4898024;29;20002;-66
2022/06/14 00:10:42;;;;;;;;;;;25.00;46.90;;;;;;4899205;29;19911;-64
2022/06/14 00:13:08;;;;;;;;;;;25.00;47.00;;;;;;4898982;29;20034;-66
2022/06/14 00:15:34;;;;;;;;;;;25.00;47.10;;;;;;4899013;29;19912;-66
2022/06/14 00:17:59;;;;;;;;;;;25.00;47.10;;;;;;4899204;29;19918;-67
2022/06/14 00:20:25;;;;;;;;;;;24.90;47.20;;;;;;4898595;29;19931;-66
2022/06/14 00:22:51;;;;;;;;;;;25.00;47.30;;;;;;4898361;29;19940;-66
2022/06/14 00:25:36;;;;;;;;;;;25.00;47.50;;;;;;4897529;29;20390;-66
2022/06/14 00:28:03;;;;;;;;;;;25.00;47.60;;;;;;4898394;29;20341;-66
2022/06/14 00:30:29;;;;;;;;;;;24.90;47.90;;;;;;4898825;29;19994;-64
2022/06/14 00:32:55;;;;;;;;;;;24.90;48.20;;;;;;4898840;29;19923;-64
2022/06/14 00:35:20;;;;;;;;;;;24.80;48.30;;;;;;4898856;29;19974;-64
2022/06/14 00:37:46;;;;;;;;;;;24.80;48.50;;;;;;4898934;29;19935;-66
2022/06/14 00:40:14;;;;;;;;;;;24.80;48.60;;;;;;4898745;29;20439;-66
2022/06/14 00:42:40;;;;;;;;;;;24.80;48.80;;;;;;4898935;29;19919;-66
2022/06/14 00:45:08;;;;;;;;;;;24.80;49.00;;;;;;4898660;29;19911;-65
2022/06/14 00:47:41;;;;;;;;;;;24.70;49.20;;;;;;4898705;29;19911;-66
2022/06/14 00:50:11;;;;;;;;;;;24.60;49.50;;;;;;4898863;29;19912;-66
2022/06/14 00:52:39;;;;;;;;;;;24.70;49.50;;;;;;4898609;29;19915;-65
2022/06/14 00:55:09;;;;;;;;;;;24.70;49.50;;;;;;4898402;29;19915;-65
2022/06/14 00:57:42;;;;;;;;;;;24.70;49.60;;;;;;4898261;29;19963;-63
2022/06/14 01:00:14;;;;;;;;;;;24.70;49.80;;;;;;4898563;29;20351;-66
2022/06/14 01:02:45;;;;;;;;;;;24.50;50.00;;;;;;4896856;29;19950;-65
2022/06/14 01:05:15;;;;;;;;;;;24.60;50.20;;;;;;4898772;29;20309;-65
2022/06/14 01:07:44;;;;;;;;;;;24.60;50.20;;;;;;4898439;29;20295;-66
2022/06/14 01:10:11;;;;;;;;;;;24.50;50.20;;;;;;4898216;29;20435;-65
2022/06/14 01:12:40;;;;;;;;;;;24.50;50.40;;;;;;4898126;29;19938;-66
2022/06/14 01:15:20;;;;;;;;;;;24.40;50.60;;;;;;4898354;29;20321;-64
2022/06/14 01:17:53;;;;;;;;;;;24.40;50.70;;;;;;4898316;29;19959;-64
2022/06/14 01:20:21;;;;;;;;;;;24.40;50.80;;;;;;4898184;29;19931;-66
2022/06/14 01:22:47;;;;;;;;;;;24.40;50.90;;;;;;4898406;29;19918;-66
2022/06/14 01:25:13;;;;;;;;;;;24.40;51.10;;;;;;4898297;29;19919;-66
2022/06/14 01:27:39;;;;;;;;;;;24.30;51.20;;;;;;4898836;29;20264;-67
2022/06/14 01:30:05;;;;;;;;;;;24.30;51.40;;;;;;4898380;29;19916;-67
2022/06/14 01:32:32;;;;;;;;;;;24.30;51.50;;;;;;4898214;29;19918;-65
2022/06/14 01:35:00;;;;;;;;;;;24.30;51.60;;;;;;4900440;29;20014;-67
2022/06/14 01:37:26;;;;;;;;;;;24.20;51.70;;;;;;4900732;29;19911;-71
2022/06/14 01:39:53;;;;;;;;;;;24.20;51.80;;;;;;4901787;29;19934;-68
2022/06/14 01:42:34;;;;;;;;;;;24.20;51.90;;;;;;4901970;29;19918;-68
2022/06/14 01:45:10;;;;;;;;;;;24.20;52.00;;;;;;4901714;29;19911;-65
2022/06/14 01:47:35;;;;;;;;;;;24.10;52.10;;;;;;4901794;29;19911;-67
2022/06/14 01:52:48;;;;;;;;;;;24.10;52.40;;;;;;4902297;29;19927;-67
2022/06/14 01:55:16;;;;;;;;;;;24.10;52.50;;;;;;4908894;29;19916;-66
2022/06/14 01:57:42;;;;;;;;;;;24.00;52.70;;;;;;4910180;29;20345;-67
2022/06/14 02:00:10;;;;;;;;;;;23.90;53.00;;;;;;4910341;29;19928;-65
2022/06/14 02:02:39;;;;;;;;;;;23.80;53.20;;;;;;4906083;29;19912;-66
2022/06/14 02:05:04;;;;;;;;;;;23.80;53.30;;;;;;4906219;29;19922;-65
2022/06/14 02:07:36;;;;;;;;;;;23.80;54.10;;;;;;4906812;29;19947;-67
2022/06/14 02:10:04;;;;;;;;;;;23.80;53.60;;;;;;4901706;29;19958;-65
2022/06/14 02:12:50;;;;;;;;;;;23.70;53.60;;;;;;4901632;29;19912;-68
2022/06/14 02:15:15;;;;;;;;;;;23.70;54.00;;;;;;4901169;29;19923;-65
2022/06/14 02:17:43;;;;;;;;;;;23.70;54.10;;;;;;4901477;29;20284;-65
2022/06/14 02:20:13;;;;;;;;;;;23.70;54.10;;;;;;4901075;29;19931;-67
2022/06/14 02:22:41;;;;;;;;;;;23.60;54.40;;;;;;4901334;29;19912;-64
2022/06/14 02:25:10;;;;;;;;;;;23.60;54.50;;;;;;4901430;29;20287;-66
2022/06/14 02:27:41;;;;;;;;;;;23.60;54.70;;;;;;4901219;29;19998;-66
2022/06/14 02:30:14;;;;;;;;;;;23.50;54.80;;;;;;4901130;29;19919;-67
2022/06/14 02:32:42;;;;;;;;;;;23.50;54.80;;;;;;4901257;29;19919;-65
2022/06/14 02:35:28;;;;;;;;;;;23.50;55.00;;;;;;4901313;29;19911;-66
2022/06/14 02:38:03;;;;;;;;;;;23.50;55.10;;;;;;4900841;29;19918;-65
2022/06/14 02:40:36;;;;;;;;;;;23.50;55.20;;;;;;4901243;29;20002;-66
2022/06/14 02:43:01;;;;;;;;;;;23.40;55.40;;;;;;4901075;29;20376;-65
2022/06/14 02:45:30;;;;;;;;;;;23.30;55.60;;;;;;4900190;29;19954;-66
2022/06/14 02:48:03;;;;;;;;;;;23.30;55.60;;;;;;4900874;29;19911;-65
2022/06/14 02:50:32;;;;;;;;;;;23.30;55.70;;;;;;4901030;29;20356;-65
2022/06/14 02:53:01;;;;;;;;;;;23.30;55.60;;;;;;4900823;29;19919;-65
2022/06/14 02:55:27;;;;;;;;;;;23.30;55.50;;;;;;4900906;29;20010;-66
2022/06/14 02:57:57;;;;;;;;;;;23.40;55.20;;;;;;4900733;29;20419;-67
2022/06/14 03:00:28;;;;;;;;;;;23.40;55.30;;;;;;4900819;29;19912;-66
2022/06/14 03:03:09;;;;;;;;;;;23.40;55.30;;;;;;4900743;29;19911;-69
2022/06/14 03:05:37;;;;;;;;;;;23.40;55.30;;;;;;4900835;29;19944;-67
2022/06/14 03:08:09;;;;;;;;;;;23.40;54.90;;;;;;4900597;29;19951;-68
2022/06/14 03:10:39;;;;;;;;;;;23.50;54.60;;;;;;4900784;29;19915;-68
2022/06/14 03:13:09;;;;;;;;;;;23.60;54.20;;;;;;4899120;29;19923;-66
2022/06/14 03:15:40;;;;;;;;;;;23.60;54.10;;;;;;4899786;29;19912;-66
2022/06/14 03:18:09;;;;;;;;;;;23.80;54.20;;;;;;4900627;29;19977;-67
2022/06/14 03:20:41;;;;;;;;;;;23.70;54.10;;;;;;4900394;29;19963;-66
2022/06/14 03:23:18;;;;;;;;;;;23.70;54.40;;;;;;4900292;29;19915;-67
2022/06/14 03:26:04;;;;;;;;;;;23.60;54.90;;;;;;4900434;29;20075;-66
2022/06/14 03:28:50;;;;;;;;;;;23.60;55.00;;;;;;4899952;29;20452;-66
2022/06/14 03:31:28;;;;;;;;;;;23.60;55.20;;;;;;4900421;29;20407;-66
2022/06/14 03:33:58;;;;;;;;;;;23.70;55.10;;;;;;4900260;29;19927;-67
2022/06/14 03:36:24;;;;;;;;;;;23.60;55.20;;;;;;4900238;29;19912;-67
2022/06/14 03:38:57;;;;;;;;;;;23.70;55.20;;;;;;4900009;29;20340;-67
2022/06/14 03:41:25;;;;;;;;;;;23.70;55.20;;;;;;4899934;29;19950;-66
2022/06/14 03:43:51;;;;;;;;;;;23.70;55.30;;;;;;4899792;29;19923;-66
2022/06/14 03:46:26;;;;;;;;;;;23.70;55.30;;;;;;4899998;29;19967;-66
2022/06/14 03:48:53;;;;;;;;;;;23.70;55.30;;;;;;4899893;29;19918;-65
2022/06/14 03:51:28;;;;;;;;;;;23.70;55.00;;;;;;4899925;29;19911;-66
2022/06/14 03:54:06;;;;;;;;;;;23.50;56.40;;;;;;4898352;29;19923;-65
2022/06/14 03:56:57;;;;;;;;;;;23.60;56.00;;;;;;4899505;29;19966;-66
2022/06/14 03:59:23;;;;;;;;;;;23.50;56.80;;;;;;4898255;29;19975;-66
2022/06/14 04:02:07;;;;;;;;;;;23.50;57.30;;;;;;4899554;29;20384;-67
2022/06/14 04:04:41;;;;;;;;;;;23.40;57.20;;;;;;4899492;29;19912;-64
2022/06/14 04:07:21;;;;;;;;;;;22.90;57.00;;;;;;4899238;29;19967;-67
2022/06/14 04:09:46;;;;;;;;;;;22.60;57.90;;;;;;4899118;29;19919;-68
2022/06/14 04:12:26;;;;;;;;;;;22.50;58.50;;;;;;4899328;29;19911;-66
2022/06/14 04:14:53;;;;;;;;;;;22.60;58.60;;;;;;4899666;29;19920;-69
2022/06/14 04:17:22;;;;;;;;;;;22.60;58.50;;;;;;4899763;29;19918;-66
2022/06/14 04:19:50;;;;;;;;;;;22.60;58.50;;;;;;4899192;29;20053;-66
2022/06/14 04:22:28;;;;;;;;;;;22.50;58.80;;;;;;4899265;29;19912;-68
2022/06/14 04:25:00;;;;;;;;;;;22.50;58.40;;;;;;4899459;29;19911;-66
2022/06/14 04:27:34;;;;;;;;;;;22.50;58.50;;;;;;4899071;29;20415;-67
2022/06/14 04:30:11;;;;;;;;;;;22.50;57.90;;;;;;4899362;29;19911;-67
2022/06/14 04:32:45;;;;;;;;;;;22.60;58.10;;;;;;4899126;29;20441;-66
2022/06/14 04:35:16;;;;;;;;;;;22.60;57.60;;;;;;4899046;29;19912;-67
2022/06/14 04:37:44;;;;;;;;;;;22.50;57.10;;;;;;4897956;29;20280;-68
2022/06/14 04:40:13;;;;;;;;;;;22.60;57.20;;;;;;4898931;29;19919;-69
2022/06/14 04:42:42;;;;;;;;;;;22.50;57.20;;;;;;4898947;29;19912;-66
2022/06/14 04:45:17;;;;;;;;;;;22.50;56.40;;;;;;4899195;29;19911;-68
2022/06/14 04:47:46;;;;;;;;;;;22.50;56.40;;;;;;4898980;29;20047;-68
2022/06/14 04:50:24;;;;;;;;;;;22.40;56.10;;;;;;4898979;29;19966;-69
2022/06/14 04:52:49;;;;;;;;;;;22.50;55.70;;;;;;4898906;29;19916;-68
2022/06/14 04:55:33;;;;;;;;;;;22.40;55.90;;;;;;4898782;29;20043;-67
2022/06/14 04:58:05;;;;;;;;;;;22.30;55.90;;;;;;4898869;29;20427;-69
2022/06/14 05:00:34;;;;;;;;;;;22.40;55.60;;;;;;4898936;29;20276;-68
2022/06/14 05:03:18;;;;;;;;;;;22.30;56.10;;;;;;4898774;29;19911;-67
2022/06/14 05:05:53;;;;;;;;;;;22.40;56.00;;;;;;4899141;29;20316;-67
2022/06/14 05:08:23;;;;;;;;;;;22.50;55.80;;;;;;4898496;29;20344;-67
2022/06/14 05:11:00;;;;;;;;;;;22.40;55.90;;;;;;4898619;29;19919;-66
2022/06/14 05:13:34;;;;;;;;;;;22.40;56.00;;;;;;4898786;29;19967;-68
2022/06/14 05:16:10;;;;;;;;;;;22.40;56.00;;;;;;4898595;29;19911;-66
2022/06/14 05:18:44;;;;;;;;;;;22.40;56.20;;;;;;4898707;29;19915;-69
2022/06/14 05:21:19;;;;;;;;;;;22.50;55.80;;;;;;4898488;29;20001;-67
2022/06/14 05:23:47;;;;;;;;;;;22.40;55.70;;;;;;4898595;29;19916;-69
2022/06/14 05:26:18;;;;;;;;;;;22.30;55.60;;;;;;4898606;29;19918;-66
2022/06/14 05:28:47;;;;;;;;;;;22.40;55.70;;;;;;4898471;29;19915;-69
2022/06/14 05:31:28;;;;;;;;;;;22.40;54.10;;;;;;4898485;29;19922;-66
2022/06/14 05:33:58;;;;;;;;;;;22.30;52.20;;;;;;4898708;29;20396;-68
2022/06/14 05:36:26;;;;;;;;;;;22.30;51.70;;;;;;4898686;29;19912;-68
2022/06/14 05:38:56;;;;;;;;;;;22.20;51.20;;;;;;4898267;29;19919;-67
2022/06/14 05:41:40;;;;;;;;;;;22.20;51.70;;;;;;4898622;29;19911;-66
2022/06/14 05:44:07;;;;;;;;;;;22.20;51.10;;;;;;4898644;29;20376;-69
2022/06/14 05:46:42;;;;;;;;;;;22.50;50.70;;;;;;4898689;29;19912;-68
2022/06/14 05:49:18;;;;;;;;;;;22.90;49.90;;;;;;4898246;29;20288;-68
2022/06/14 05:51:47;;;;;;;;;;;23.10;49.40;;;;;;4898611;29;20312;-68
2022/06/14 05:54:18;;;;;;;;;;;23.30;49.20;;;;;;4898388;29;19919;-69
2022/06/14 05:56:59;;;;;;;;;;;23.60;48.90;;;;;;4898428;29;19912;-69
2022/06/14 05:59:47;;;;;;;;;;;23.80;48.20;;;;;;4898162;29;20317;-69
2022/06/14 06:02:17;;;;;;;;;;;23.90;48.30;;;;;;4898426;29;19911;-67
2022/06/14 06:04:46;;;;;;;;;;;23.90;48.20;;;;;;4896963;29;20353;-71
2022/06/14 06:07:13;;;;;;;;;;;23.90;48.40;;;;;;4898307;29;20353;-72
2022/06/14 06:09:59;;;;;;;;;;;24.00;47.70;;;;;;4898361;29;20373;-72
2022/06/14 06:12:29;;;;;;;;;;;24.00;47.50;;;;;;4897481;29;19923;-72
2022/06/14 06:15:02;;;;;;;;;;;23.80;47.70;;;;;;4898229;29;19946;-71
2022/06/14 06:17:30;;;;;;;;;;;24.00;47.40;;;;;;4897995;29;19971;-72
2022/06/14 06:20:01;;;;;;;;;;;24.00;47.40;;;;;;4897939;29;19927;-67
2022/06/14 06:22:46;;;;;;;;;;;24.10;47.70;;;;;;4901025;29;19941;-72
2022/06/14 06:25:17;;;;;;;;;;;24.40;46.10;;;;;;4901306;29;19911;-72
2022/06/14 06:27:48;;;;;;;;;;;24.50;46.10;;;;;;4901092;29;19912;-69
2022/06/14 06:30:17;;;;;;;;;;;24.60;45.50;;;;;;4899988;29;19911;-70
2022/06/14 06:32:43;;;;;;;;;;;24.30;45.70;;;;;;4899910;29;19918;-72
2022/06/14 06:35:10;;;;;;;;;;;24.50;46.30;;;;;;4901437;29;19919;-71
2022/06/14 06:37:36;;;;;;;;;;;24.60;45.30;;;;;;4892537;29;19958;-74
2022/06/14 06:40:21;;;;;;;;;;;24.90;45.10;;;;;;4891406;29;20353;-71
2022/06/14 06:42:56;;;;;;;;;;;25.20;44.20;;;;;;4892094;29;20261;-70
2022/06/14 06:45:23;;;;;;;;;;;25.30;43.40;;;;;;4891127;29;19911;-72
2022/06/14 06:47:49;;;;;;;;;;;24.90;43.60;;;;;;4899812;29;19990;-71
2022/06/14 06:50:20;;;;;;;;;;;25.00;44.00;;;;;;4901278;29;19954;-71
2022/06/14 06:53:04;;;;;;;;;;;25.30;43.40;;;;;;4900785;29;20364;-69
2022/06/14 06:55:33;;;;;;;;;;;25.40;42.70;;;;;;4900906;29;19919;-71
2022/06/14 06:58:01;;;;;;;;;;;25.50;42.00;;;;;;4900783;29;20312;-70
2022/06/14 07:00:27;;;;;;;;;;;25.30;42.10;;;;;;4905117;29;20291;-70
2022/06/14 07:03:04;;;;;;;;;;;25.30;42.30;;;;;;4909544;29;19911;-70
2022/06/14 07:05:29;;;;;;;;;;;25.60;42.00;;;;;;4912228;29;19912;-75
2022/06/14 07:07:59;;;;;;;;;;;26.00;41.00;;;;;;4906605;29;20380;-71
2022/06/14 07:10:27;;;;;;;;;;;25.90;40.30;;;;;;4906134;29;19918;-73
2022/06/14 07:12:55;;;;;;;;;;;25.90;40.70;;;;;;4896746;29;19919;-71
2022/06/14 07:15:27;;;;;;;;;;;25.90;39.60;;;;;;4891023;29;19911;-71
2022/06/14 07:18:01;;;;;;;;;;;25.90;39.60;;;;;;4891747;29;20262;-70
2022/06/14 07:20:32;;;;;;;;;;;26.00;39.40;;;;;;4891303;29;20363;-70
2022/06/14 07:23:10;;;;;;;;;;;26.00;39.00;;;;;;4890346;29;19968;-69
2022/06/14 07:25:56;;;;;;;;;;;26.20;38.80;;;;;;4891407;29;20378;-69
2022/06/14 07:28:37;;;;;;;;;;;26.00;38.20;;;;;;4891433;29;19919;-66
2022/06/14 07:31:05;;;;;;;;;;;25.90;38.50;;;;;;4891362;29;19918;-72
2022/06/14 07:33:31;;;;;;;;;;;26.30;38.40;;;;;;4890487;29;19919;-64
2022/06/14 07:36:20;;;;;;;;;;;26.60;37.10;;;;;;4889909;29;19912;-71
2022/06/14 07:39:06;;;;;;;;;;;26.90;36.80;;;;;;4881300;29;19965;-70
2022/06/14 07:41:50;;;;;;;;;;;26.80;35.50;;;;;;4891203;29;19911;-67
2022/06/14 07:44:22;;;;;;;;;;;26.90;34.90;;;;;;4891093;29;19921;-66
2022/06/14 07:46:51;;;;;;;;;;;26.80;34.80;;;;;;4890986;29;20015;-67
2022/06/14 07:49:23;;;;;;;;;;;26.60;34.80;;;;;;4889698;29;19912;-67
2022/06/14 07:51:59;;;;;;;;;;;26.50;35.00;;;;;;4888743;29;19912;-66
2022/06/14 07:54:28;;;;;;;;;;;26.40;34.90;;;;;;4890529;29;20264;-67
2022/06/14 07:57:00;;;;;;;;;;;26.30;34.90;;;;;;4890993;29;19956;-68
2022/06/14 07:59:29;;;;;;;;;;;26.40;34.70;;;;;;4891932;29;20467;-64
2022/06/14 08:01:55;;;;;;;;;;;26.40;34.60;;;;;;4887427;29;20384;-68
2022/06/14 08:04:31;;;;;;;;;;;26.40;34.70;;;;;;4890075;29;19919;-64
2022/06/14 08:07:00;;;;;;;;;;;26.50;35.20;;;;;;4891360;29;20287;-67
2022/06/14 08:09:34;;;;;;;;;;;26.60;34.80;;;;;;4890515;29;19972;-67
2022/06/14 08:12:02;;;;;;;;;;;26.70;35.00;;;;;;4897450;29;19915;-69
2022/06/14 08:14:32;;;;;;;;;;;26.70;34.00;;;;;;4913236;29;20019;-65
2022/06/14 08:17:01;;;;;;;;;;;26.90;34.70;;;;;;4911879;29;20308;-63
2022/06/14 08:19:30;;;;;;;;;;;27.00;34.80;;;;;;4908333;29;20020;-68
2022/06/14 08:21:59;;;;;;;;;;;27.10;34.90;;;;;;4910641;29;20055;-68
2022/06/14 08:24:29;;;;;;;;;;;27.30;35.10;;;;;;4911623;29;19915;-70
2022/06/14 08:26:55;;;;;;;;;;;27.60;34.90;;;;;;4898417;29;19916;-68
2022/06/14 08:29:24;;;;;;;;;;;27.70;33.60;;;;;;4889473;29;20252;-67
2022/06/14 08:31:55;;;;;;;;;;;27.60;33.30;;;;;;4890282;29;19911;-65
2022/06/14 08:34:25;;;;;;;;;;;27.40;34.00;;;;;;4889374;29;19927;-68
2022/06/14 08:36:50;;;;;;;;;;;27.30;33.90;;;;;;4890308;29;19912;-71
2022/06/14 08:39:20;;;;;;;;;;;27.10;34.00;;;;;;4896233;29;19934;-70
2022/06/14 08:41:57;;;;;;;;;;;27.10;33.80;;;;;;4897089;29;20336;-66
2022/06/14 08:44:27;;;;;;;;;;;26.90;34.30;;;;;;4897508;29;19947;-67
2022/06/14 08:47:07;;;;;;;;;;;26.90;34.10;;;;;;4898267;29;20328;-70
2022/06/14 08:49:42;;;;;;;;;;;27.10;33.80;;;;;;4892930;29;19919;-68
2022/06/14 08:52:20;;;;;;;;;;;27.10;34.20;;;;;;4888650;29;19918;-68
2022/06/14 08:55:00;;;;;;;;;;;27.30;34.20;;;;;;4888113;29;19920;-66
2022/06/14 08:57:28;;;;;;;;;;;27.50;33.60;;;;;;4888211;29;19923;-68
2022/06/14 09:00:04;;;;;;;;;;;27.60;33.90;;;;;;4888501;29;19936;-70
2022/06/14 09:02:39;;;;;;;;;;;27.50;33.70;;;;;;4888864;29;19912;-69
2022/06/14 09:05:07;;;;;;;;;;;27.50;33.10;;;;;;4887879;29;19918;-72
2022/06/14 09:07:36;;;;;;;;;;;27.30;33.40;;;;;;4889697;29;19916;-71
2022/06/14 09:10:08;;;;;;;;;;;27.40;33.60;;;;;;4897064;29;19916;-67
2022/06/14 09:12:34;;;;;;;;;;;27.10;33.90;;;;;;4888079;29;19912;-68
2022/06/14 09:15:11;;;;;;;;;;;27.10;34.30;;;;;;4888714;29;19916;-69
2022/06/14 09:17:42;;;;;;;;;;;27.00;34.30;;;;;;4889466;29;19912;-66
2022/06/14 09:20:28;;;;;;;;;;;27.20;34.70;;;;;;4889099;29;19992;-69
2022/06/14 09:23:00;;;;;;;;;;;27.40;34.50;;;;;;4883835;29;19943;-67
2022/06/14 09:25:28;;;;;;;;;;;27.30;34.50;;;;;;4887800;29;19971;-69
2022/06/14 09:27:59;;;;;;;;;;;27.30;34.20;;;;;;4890493;29;19966;-70
2022/06/14 09:30:40;;;;;;;;;;;27.30;34.00;;;;;;4889732;29;19920;-67
2022/06/14 09:33:26;;;;;;;;;;;27.10;34.20;;;;;;4889443;29;19915;-72
2022/06/14 09:36:00;;;;;;;;;;;27.20;34.10;;;;;;4889639;29;19916;-76
2022/06/14 09:38:35;;;;;;;;;;;27.10;34.70;;;;;;4889504;29;19912;-74
2022/06/14 09:41:15;;;;;;;;;;;27.10;34.60;;;;;;4879802;29;20009;-73
2022/06/14 09:44:00;;;;;;;;;;;27.20;35.80;;;;;;4878293;29;19912;-73
2022/06/14 09:46:26;;;;;;;;;;;27.40;34.10;;;;;;4879954;29;19912;-69
2022/06/14 09:48:52;;;;;;;;;;;27.30;34.30;;;;;;4884188;29;20403;-73
2022/06/14 09:51:30;;;;;;;;;;;27.30;34.70;;;;;;4888194;29;19926;-73
2022/06/14 09:54:16;;;;;;;;;;;27.40;34.60;;;;;;4889225;29;20014;-72
2022/06/14 09:56:48;;;;;;;;;;;27.40;34.20;;;;;;4891783;29;19919;-72
2022/06/14 09:59:19;;;;;;;;;;;27.30;34.90;;;;;;4890897;29;19916;-72
2022/06/14 10:01:53;;;;;;;;;;;27.50;34.80;;;;;;4891818;29;19927;-72
2022/06/14 10:04:30;;;;;;;;;;;27.40;34.60;;;;;;4893110;29;19916;-72
2022/06/14 10:06:59;;;;;;;;;;;27.60;35.00;;;;;;4892800;29;19962;-70
2022/06/14 10:09:43;;;;;;;;;;;27.70;33.50;;;;;;4892613;29;19922;-72
2022/06/14 10:12:23;;;;;;;;;;;27.70;34.20;;;;;;4892635;29;20357;-73
2022/06/14 10:15:04;;;;;;;;;;;27.80;34.30;;;;;;4892728;29;19919;-78
2022/06/14 10:17:56;;;;;;;;;;;27.90;34.00;;;;;;4894059;29;20412;-73
2022/06/14 10:20:34;;;;;;;;;;;27.80;33.10;;;;;;4901191;29;20257;-73
2022/06/14 10:23:11;;;;;;;;;;;27.70;33.90;;;;;;4901339;29;19919;-78
2022/06/14 10:25:36;;;;;;;;;;;27.40;34.10;;;;;;4901335;29;20372;-72
2022/06/14 10:28:17;;;;;;;;;;;27.50;34.30;;;;;;4901259;29;19911;-68
2022/06/14 10:30:58;;;;;;;;;;;27.50;34.30;;;;;;4901171;29;19912;-75
2022/06/14 10:33:29;;;;;;;;;;;27.30;34.70;;;;;;4901318;29;20399;-69
2022/06/14 10:35:54;;;;;;;;;;;27.60;34.20;;;;;;4901326;29;20437;-73
2022/06/14 10:38:53;;;;;;;;;;;27.80;34.00;;;;;;4901441;29;19918;-74
2022/06/14 10:41:18;;;;;;;;;;;27.70;33.20;;;;;;4889631;29;19955;-71
2022/06/14 10:43:52;;;;;;;;;;;27.80;33.80;;;;;;4898635;29;19979;-70
2022/06/14 10:46:22;;;;;;;;;;;27.80;33.20;;;;;;4900246;29;20271;-77
2022/06/14 10:49:06;;;;;;;;;;;27.80;33.90;;;;;;4900305;29;19915;-77
2022/06/14 10:51:37;;;;;;;;;;;28.00;33.70;;;;;;4900362;29;19912;-76
2022/06/14 10:54:03;;;;;;;;;;;28.20;33.60;;;;;;4900213;29;20372;-72
2022/06/14 10:56:34;;;;;;;;;;;28.20;33.60;;;;;;4899774;29;19917;-73
2022/06/14 10:59:18;;;;;;;;;;;28.10;32.60;;;;;;4898438;29;19911;-66
2022/06/14 11:01:59;;;;;;;;;;;28.00;33.50;;;;;;4898259;29;20379;-70
2022/06/14 11:04:37;;;;;;;;;;;27.80;33.50;;;;;;4897686;29;19911;-68
2022/06/14 11:07:08;;;;;;;;;;;28.20;34.50;;;;;;4898873;29;19918;-67
2022/06/14 11:09:54;;;;;;;;;;;28.30;33.60;;;;;;4899926;29;19918;-68
2022/06/14 11:12:25;;;;;;;;;;;28.40;33.90;;;;;;4883019;29;19991;-68
2022/06/14 11:14:58;;;;;;;;;;;28.40;33.30;;;;;;4881375;29;19920;-68
2022/06/14 11:17:23;;;;;;;;;;;28.70;33.30;;;;;;4887157;29;19927;-63
2022/06/14 11:19:54;;;;;;;;;;;28.60;31.90;;;;;;4899647;29;19912;-67
2022/06/14 11:22:39;;;;;;;;;;;28.60;32.50;;;;;;4881679;29;20059;-64
2022/06/14 11:25:22;;;;;;;;;;;28.50;31.90;;;;;;4881151;29;19912;-62
2022/06/14 11:28:16;;;;;;;;;;;28.70;33.00;;;;;;4892482;29;20018;-70
2022/06/14 11:30:45;;;;;;;;;;;29.00;32.30;;;;;;4880695;29;20023;-67
2022/06/14 11:33:21;;;;;;;;;;;28.90;31.70;;;;;;4884561;29;19998;-64
2022/06/14 11:36:06;;;;;;;;;;;29.10;32.70;;;;;;4890436;29;19998;-67
2022/06/14 11:38:41;;;;;;;;;;;29.20;31.90;;;;;;4892259;29;19911;-65
2022/06/14 11:41:08;;;;;;;;;;;28.90;31.70;;;;;;4898924;29;20014;-65
2022/06/14 11:43:49;;;;;;;;;;;29.20;33.20;;;;;;4898975;29;20336;-67
2022/06/14 11:46:23;;;;;;;;;;;29.20;31.50;;;;;;4898992;29;19915;-69
2022/06/14 11:49:04;;;;;;;;;;;29.00;31.30;;;;;;4898760;29;19912;-65
2022/06/14 11:51:29;;;;;;;;;;;29.00;32.70;;;;;;4896719;29;19911;-63
2022/06/14 11:54:06;;;;;;;;;;;29.20;32.60;;;;;;4898740;29;20014;-64
2022/06/14 11:56:50;;;;;;;;;;;29.40;32.50;;;;;;4898621;29;19911;-66
2022/06/14 11:59:34;;;;;;;;;;;29.50;30.80;;;;;;4898831;29;20364;-67
2022/06/14 12:02:15;;;;;;;;;;;29.30;30.40;;;;;;4899222;29;19918;-70
2022/06/14 12:04:59;;;;;;;;;;;28.90;31.20;;;;;;4895153;29;19911;-69
2022/06/14 12:07:30;;;;;;;;;;;28.90;33.60;;;;;;4898604;29;19915;-67
2022/06/14 12:09:59;;;;;;;;;;;29.10;31.20;;;;;;4904521;29;19922;-68
2022/06/14 12:12:43;;;;;;;;;;;29.20;31.60;;;;;;4904492;29;19946;-71
2022/06/14 12:15:11;;;;;;;;;;;28.90;31.10;;;;;;4904360;29;19924;-73
2022/06/14 12:17:49;;;;;;;;;;;29.00;32.20;;;;;;4901947;29;19911;-68
2022/06/14 12:20:19;;;;;;;;;;;29.00;31.80;;;;;;4901061;29;20187;-70
2022/06/14 12:23:03;;;;;;;;;;;29.10;31.60;;;;;;4899503;29;19919;-67
2022/06/14 12:28:39;;;;;;;;;;;29.30;30.70;;;;;;4898040;29;19940;-69
2022/06/14 12:31:18;;;;;;;;;;;29.20;31.10;;;;;;4898093;29;19994;-70
2022/06/14 12:33:46;;;;;;;;;;;29.20;32.10;;;;;;4897970;29;19967;-68
2022/06/14 12:36:30;;;;;;;;;;;29.40;31.30;;;;;;4898690;29;19915;-64
2022/06/14 12:38:59;;;;;;;;;;;29.60;31.00;;;;;;4898221;29;19915;-66
2022/06/14 12:41:45;;;;;;;;;;;29.70;31.60;;;;;;4898579;29;19911;-69
2022/06/14 12:44:11;;;;;;;;;;;29.70;31.00;;;;;;4897198;29;19915;-64
2022/06/14 12:46:39;;;;;;;;;;;29.70;31.20;;;;;;4897841;29;19911;-65
2022/06/14 12:49:22;;;;;;;;;;;29.70;31.50;;;;;;4897752;29;19915;-65
2022/06/14 12:51:55;;;;;;;;;;;29.90;31.20;;;;;;4897787;29;19931;-63
2022/06/14 12:54:38;;;;;;;;;;;29.80;30.60;;;;;;4897575;29;19919;-64
2022/06/14 12:57:12;;;;;;;;;;;29.90;30.60;;;;;;4897039;29;20724;-66
2022/06/14 12:59:57;;;;;;;;;;;29.60;31.20;;;;;;4896413;29;19911;-64
2022/06/14 13:02:41;;;;;;;;;;;29.50;31.20;;;;;;4898184;29;19912;-66
2022/06/14 13:05:10;;;;;;;;;;;29.40;31.40;;;;;;4891220;29;19919;-64
2022/06/14 13:07:38;;;;;;;;;;;29.50;32.20;;;;;;4888747;29;19936;-66
2022/06/14 13:10:28;;;;;;;;;;;29.70;31.90;;;;;;4888767;29;20050;-65
2022/06/14 13:13:05;;;;;;;;;;;29.70;31.00;;;;;;4890065;29;19916;-66
2022/06/14 13:15:42;;;;;;;;;;;29.50;31.50;;;;;;4888018;29;19919;-67
2022/06/14 13:18:16;;;;;;;;;;;29.60;31.60;;;;;;4887979;29;19919;-70
2022/06/14 13:20:45;;;;;;;;;;;29.70;31.70;;;;;;4891235;29;19927;-70
2022/06/14 13:23:11;;;;;;;;;;;29.70;31.20;;;;;;4898592;29;19919;-70
2022/06/14 13:26:14;;;;;;;;;;;29.50;32.30;;;;;;4898550;29;19911;-72
2022/06/14 13:28:53;;;;;;;;;;;29.70;31.70;;;;;;4877641;29;19967;-72
2022/06/14 13:31:37;;;;;;;;;;;29.80;31.90;;;;;;4849728;29;20931;-70
2022/06/14 13:34:11;;;;;;;;;;;29.70;32.00;;;;;;4881639;29;19926;-70
2022/06/14 13:36:36;;;;;;;;;;;29.90;32.40;;;;;;4881647;29;20250;-71
2022/06/14 13:39:25;;;;;;;;;;;30.00;31.50;;;;;;4881390;29;19918;-70
2022/06/14 13:42:01;;;;;;;;;;;30.20;32.50;;;;;;4881216;29;19960;-72
2022/06/14 13:44:35;;;;;;;;;;;30.30;30.60;;;;;;4881406;29;19999;-72
2022/06/14 13:47:02;;;;;;;;;;;30.30;31.10;;;;;;4881342;29;19997;-73
2022/06/14 13:49:31;;;;;;;;;;;30.20;31.60;;;;;;4881283;29;19912;-71
2022/06/14 13:51:59;;;;;;;;;;;30.20;31.70;;;;;;4881193;29;19923;-70
2022/06/14 13:54:31;;;;;;;;;;;30.30;31.60;;;;;;4881338;29;20404;-72
2022/06/14 13:57:00;;;;;;;;;;;30.10;31.10;;;;;;4880915;29;19912;-72
2022/06/14 13:59:30;;;;;;;;;;;30.30;31.60;;;;;;4891703;29;20009;-71
2022/06/14 14:01:58;;;;;;;;;;;30.40;31.90;;;;;;4902033;29;19911;-70
2022/06/14 14:04:38;;;;;;;;;;;30.60;31.90;;;;;;4901966;29;19998;-72
2022/06/14 14:07:09;;;;;;;;;;;30.70;31.30;;;;;;4901825;29;19912;-72
2022/06/14 14:09:53;;;;;;;;;;;30.70;30.30;;;;;;4901588;29;19950;-71
2022/06/14 14:12:24;;;;;;;;;;;30.70;30.40;;;;;;4901744;29;19951;-73
2022/06/14 14:14:53;;;;;;;;;;;30.80;30.70;;;;;;4901857;29;19925;-72
2022/06/14 14:17:21;;;;;;;;;;;30.80;30.20;;;;;;4901702;29;19943;-72
2022/06/14 14:19:56;;;;;;;;;;;30.40;30.10;;;;;;4901378;29;20351;-71
2022/06/14 14:22:28;;;;;;;;;;;30.20;31.20;;;;;;4901713;29;20345;-71
2022/06/14 14:24:56;;;;;;;;;;;30.20;30.80;;;;;;4900372;29;19964;-71
2022/06/14 14:27:31;;;;;;;;;;;30.40;31.80;;;;;;4900543;29;20301;-70
2022/06/14 14:29:59;;;;;;;;;;;30.60;30.80;;;;;;4901306;29;19911;-71
2022/06/14 14:32:32;;;;;;;;;;;30.80;30.70;;;;;;4901541;29;19951;-72
2022/06/14 14:35:04;;;;;;;;;;;30.70;29.80;;;;;;4901483;29;19927;-70
2022/06/14 14:37:39;;;;;;;;;;;30.70;31.30;;;;;;4901395;29;19962;-70
2022/06/14 14:40:20;;;;;;;;;;;30.80;34.60;;;;;;4901281;29;19947;-69
2022/06/14 14:42:48;;;;;;;;;;;30.50;37.40;;;;;;4899827;29;19923;-71
2022/06/14 14:45:17;;;;;;;;;;;29.50;39.60;;;;;;4901036;29;19967;-69
2022/06/14 14:47:53;;;;;;;;;;;28.80;41.30;;;;;;4901251;29;19916;-70
2022/06/14 14:50:37;;;;;;;;;;;28.30;42.20;;;;;;4900940;29;20287;-69
2022/06/14 14:53:15;;;;;;;;;;;28.20;42.90;;;;;;4901110;29;20352;-71
2022/06/14 14:55:47;;;;;;;;;;;28.50;44.00;;;;;;4901429;29;19951;-70